sensor_id;sensor_type;location;lat;lon;timestamp;P1;durP1;ratioP1;P2;durP2;ratioP2
14516;SDS011;7344;50.864;4.362;2023-07-20T00:01:15;4.20;;;3.00;;
14516;SDS011;7344;50.864;4.362;2023-07-20T00:03:41;7.20;;;3.10;;
14516;SDS011;7344;50.864;4.362;2023-07-20T00:06:06;3.40;;;3.10;;
14516;SDS011;7344;50.864;4.362;2023-07-20T00:08:32;6.23;;;3.20;;
14516;SDS011;7344;50.864;4.362;2023-07-20T00:10:58;5.60;;;3.30;;
14516;SDS011;7344;50.864;4.362;2023-07-20T00:13:23;8.20;;;3.17;;
14516;SDS011;7344;50.864;4.362;2023-07-20T00:15:49;7.17;;;3.17;;
14516;SDS011;7344;50.864;4.362;2023-07-20T00:18:16;4.37;;;3.30;;
14516;SDS011;7344;50.864;4.362;2023-07-20T00:20:41;7.93;;;3.63;;
14516;SDS011;7344;50.864;4.362;2023-07-20T00:23:07;8.93;;;3.33;;
14516;SDS011;7344;50.864;4.362;2023-07-20T00:25:32;9.57;;;2.90;;
14516;SDS011;7344;50.864;4.362;2023-07-20T00:27:58;4.93;;;3.07;;
14516;SDS011;7344;50.864;4.362;2023-07-20T00:30:24;4.53;;;3.37;;
14516;SDS011;7344;50.864;4.362;2023-07-20T00:32:50;5.80;;;3.40;;
14516;SDS011;7344;50.864;4.362;2023-07-20T00:35:15;6.20;;;3.03;;
14516;SDS011;7344;50.864;4.362;2023-07-20T00:37:41;7.33;;;3.40;;
14516;SDS011;7344;50.864;4.362;2023-07-20T00:40:07;6.07;;;3.30;;
14516;SDS011;7344;50.864;4.362;2023-07-20T00:42:33;6.77;;;3.70;;
14516;SDS011;7344;50.864;4.362;2023-07-20T00:44:59;9.13;;;3.43;;
14516;SDS011;7344;50.864;4.362;2023-07-20T00:47:25;7.77;;;3.73;;
14516;SDS011;7344;50.864;4.362;2023-07-20T00:49:51;5.80;;;3.37;;
14516;SDS011;7344;50.864;4.362;2023-07-20T00:52:18;6.73;;;3.47;;
14516;SDS011;7344;50.864;4.362;2023-07-20T00:54:45;8.23;;;3.90;;
14516;SDS011;7344;50.864;4.362;2023-07-20T00:57:13;7.93;;;3.70;;
14516;SDS011;7344;50.864;4.362;2023-07-20T00:59:40;5.40;;;3.77;;
14516;SDS011;7344;50.864;4.362;2023-07-20T01:02:06;8.00;;;3.70;;
14516;SDS011;7344;50.864;4.362;2023-07-20T01:04:32;8.80;;;3.80;;
14516;SDS011;7344;50.864;4.362;2023-07-20T01:07:00;10.53;;;4.00;;
14516;SDS011;7344;50.864;4.362;2023-07-20T01:14:52;6.00;;;3.67;;
14516;SDS011;7344;50.864;4.362;2023-07-20T01:17:19;4.73;;;3.57;;
14516;SDS011;7344;50.864;4.362;2023-07-20T01:19:44;9.67;;;4.17;;
14516;SDS011;7344;50.864;4.362;2023-07-20T01:27:35;8.20;;;3.67;;
14516;SDS011;7344;50.864;4.362;2023-07-20T01:33:04;6.30;;;3.57;;
14516;SDS011;7344;50.864;4.362;2023-07-20T01:35:32;7.53;;;4.27;;
14516;SDS011;7344;50.864;4.362;2023-07-20T01:37:59;9.07;;;4.40;;
14516;SDS011;7344;50.864;4.362;2023-07-20T01:40:25;7.87;;;5.43;;
14516;SDS011;7344;50.864;4.362;2023-07-20T01:42:52;8.37;;;4.13;;
14516;SDS011;7344;50.864;4.362;2023-07-20T01:45:18;11.30;;;4.40;;
14516;SDS011;7344;50.864;4.362;2023-07-20T01:47:45;9.83;;;4.60;;
14516;SDS011;7344;50.864;4.362;2023-07-20T01:50:11;8.37;;;4.87;;
14516;SDS011;7344;50.864;4.362;2023-07-20T01:52:36;8.63;;;4.90;;
14516;SDS011;7344;50.864;4.362;2023-07-20T01:55:02;9.80;;;4.77;;
14516;SDS011;7344;50.864;4.362;2023-07-20T01:57:29;10.33;;;5.47;;
14516;SDS011;7344;50.864;4.362;2023-07-20T01:59:55;7.10;;;5.03;;
14516;SDS011;7344;50.864;4.362;2023-07-20T02:02:20;11.93;;;5.23;;
14516;SDS011;7344;50.864;4.362;2023-07-20T02:04:46;9.23;;;5.23;;
14516;SDS011;7344;50.864;4.362;2023-07-20T02:07:11;9.50;;;5.43;;
14516;SDS011;7344;50.864;4.362;2023-07-20T02:09:37;11.57;;;5.93;;
14516;SDS011;7344;50.864;4.362;2023-07-20T02:12:03;10.93;;;6.03;;
14516;SDS011;7344;50.864;4.362;2023-07-20T02:14:28;9.93;;;5.93;;
14516;SDS011;7344;50.864;4.362;2023-07-20T02:16:54;11.83;;;6.47;;
14516;SDS011;7344;50.864;4.362;2023-07-20T02:19:24;8.97;;;5.97;;
14516;SDS011;7344;50.864;4.362;2023-07-20T02:21:51;13.83;;;6.97;;
14516;SDS011;7344;50.864;4.362;2023-07-20T02:24:16;11.40;;;6.43;;
14516;SDS011;7344;50.864;4.362;2023-07-20T02:26:42;10.63;;;6.60;;
14516;SDS011;7344;50.864;4.362;2023-07-20T02:29:08;13.90;;;7.20;;
14516;SDS011;7344;50.864;4.362;2023-07-20T02:31:36;13.30;;;7.03;;
14516;SDS011;7344;50.864;4.362;2023-07-20T02:34:04;15.53;;;7.40;;
14516;SDS011;7344;50.864;4.362;2023-07-20T02:36:30;8.60;;;6.70;;
14516;SDS011;7344;50.864;4.362;2023-07-20T02:38:57;14.13;;;7.50;;
14516;SDS011;7344;50.864;4.362;2023-07-20T02:41:23;11.37;;;7.70;;
14516;SDS011;7344;50.864;4.362;2023-07-20T02:43:49;13.83;;;8.23;;
14516;SDS011;7344;50.864;4.362;2023-07-20T02:46:15;15.03;;;8.23;;
14516;SDS011;7344;50.864;4.362;2023-07-20T02:48:40;13.70;;;8.57;;
14516;SDS011;7344;50.864;4.362;2023-07-20T02:51:06;11.57;;;8.50;;
14516;SDS011;7344;50.864;4.362;2023-07-20T02:53:32;12.37;;;8.27;;
14516;SDS011;7344;50.864;4.362;2023-07-20T02:55:58;17.63;;;8.27;;
14516;SDS011;7344;50.864;4.362;2023-07-20T02:58:24;14.50;;;8.47;;
14516;SDS011;7344;50.864;4.362;2023-07-20T03:00:50;16.77;;;9.03;;
14516;SDS011;7344;50.864;4.362;2023-07-20T03:03:15;11.90;;;8.77;;
14516;SDS011;7344;50.864;4.362;2023-07-20T03:05:41;20.97;;;9.20;;
14516;SDS011;7344;50.864;4.362;2023-07-20T03:08:07;20.07;;;9.27;;
14516;SDS011;7344;50.864;4.362;2023-07-20T03:10:35;15.47;;;9.47;;
14516;SDS011;7344;50.864;4.362;2023-07-20T03:13:04;18.43;;;10.37;;
14516;SDS011;7344;50.864;4.362;2023-07-20T03:15:30;16.50;;;9.33;;
14516;SDS011;7344;50.864;4.362;2023-07-20T03:17:56;19.60;;;9.67;;
14516;SDS011;7344;50.864;4.362;2023-07-20T03:20:23;24.57;;;10.07;;
14516;SDS011;7344;50.864;4.362;2023-07-20T03:22:49;21.93;;;10.50;;
14516;SDS011;7344;50.864;4.362;2023-07-20T03:25:14;19.43;;;10.60;;
14516;SDS011;7344;50.864;4.362;2023-07-20T03:27:40;14.50;;;10.07;;
14516;SDS011;7344;50.864;4.362;2023-07-20T03:30:06;18.73;;;11.60;;
14516;SDS011;7344;50.864;4.362;2023-07-20T03:32:32;17.17;;;11.00;;
14516;SDS011;7344;50.864;4.362;2023-07-20T03:34:58;16.23;;;10.90;;
14516;SDS011;7344;50.864;4.362;2023-07-20T03:37:23;18.10;;;11.53;;
14516;SDS011;7344;50.864;4.362;2023-07-20T03:39:49;18.17;;;11.20;;
14516;SDS011;7344;50.864;4.362;2023-07-20T03:42:14;15.50;;;10.93;;
14516;SDS011;7344;50.864;4.362;2023-07-20T03:44:40;14.27;;;10.20;;
14516;SDS011;7344;50.864;4.362;2023-07-20T03:47:06;16.83;;;11.97;;
14516;SDS011;7344;50.864;4.362;2023-07-20T03:49:31;17.00;;;10.60;;
14516;SDS011;7344;50.864;4.362;2023-07-20T03:51:57;20.37;;;11.93;;
14516;SDS011;7344;50.864;4.362;2023-07-20T03:54:23;21.43;;;11.60;;
14516;SDS011;7344;50.864;4.362;2023-07-20T03:56:48;17.87;;;11.90;;
14516;SDS011;7344;50.864;4.362;2023-07-20T03:59:14;18.90;;;11.90;;
14516;SDS011;7344;50.864;4.362;2023-07-20T04:01:39;20.03;;;11.73;;
14516;SDS011;7344;50.864;4.362;2023-07-20T04:04:06;18.43;;;12.13;;
14516;SDS011;7344;50.864;4.362;2023-07-20T04:06:33;20.17;;;12.73;;
14516;SDS011;7344;50.864;4.362;2023-07-20T04:08:59;22.27;;;13.10;;
14516;SDS011;7344;50.864;4.362;2023-07-20T04:11:24;18.67;;;12.37;;
14516;SDS011;7344;50.864;4.362;2023-07-20T04:13:50;20.27;;;12.53;;
14516;SDS011;7344;50.864;4.362;2023-07-20T04:16:15;15.30;;;11.30;;
14516;SDS011;7344;50.864;4.362;2023-07-20T04:18:41;17.70;;;12.23;;
14516;SDS011;7344;50.864;4.362;2023-07-20T04:21:10;16.90;;;11.83;;
14516;SDS011;7344;50.864;4.362;2023-07-20T04:23:36;21.53;;;12.00;;
14516;SDS011;7344;50.864;4.362;2023-07-20T04:26:02;16.83;;;11.97;;
14516;SDS011;7344;50.864;4.362;2023-07-20T04:28:27;16.87;;;11.80;;
14516;SDS011;7344;50.864;4.362;2023-07-20T04:30:53;17.23;;;12.63;;
14516;SDS011;7344;50.864;4.362;2023-07-20T04:33:18;17.80;;;12.23;;
14516;SDS011;7344;50.864;4.362;2023-07-20T04:35:53;18.40;;;12.47;;
14516;SDS011;7344;50.864;4.362;2023-07-20T04:38:20;21.70;;;12.10;;
14516;SDS011;7344;50.864;4.362;2023-07-20T04:40:46;17.60;;;11.53;;
14516;SDS011;7344;50.864;4.362;2023-07-20T04:43:14;19.60;;;11.90;;
14516;SDS011;7344;50.864;4.362;2023-07-20T04:45:40;18.97;;;12.17;;
14516;SDS011;7344;50.864;4.362;2023-07-20T04:48:07;16.03;;;11.87;;
14516;SDS011;7344;50.864;4.362;2023-07-20T04:50:43;17.73;;;11.70;;
14516;SDS011;7344;50.864;4.362;2023-07-20T04:53:12;16.33;;;12.27;;
14516;SDS011;7344;50.864;4.362;2023-07-20T04:55:38;16.43;;;12.20;;
14516;SDS011;7344;50.864;4.362;2023-07-20T04:58:05;18.70;;;11.47;;
14516;SDS011;7344;50.864;4.362;2023-07-20T05:00:32;26.13;;;12.37;;
14516;SDS011;7344;50.864;4.362;2023-07-20T05:02:58;15.07;;;11.30;;
14516;SDS011;7344;50.864;4.362;2023-07-20T05:05:24;15.60;;;10.90;;
14516;SDS011;7344;50.864;4.362;2023-07-20T05:07:49;18.77;;;11.27;;
14516;SDS011;7344;50.864;4.362;2023-07-20T05:10:15;17.57;;;11.67;;
14516;SDS011;7344;50.864;4.362;2023-07-20T05:12:41;17.57;;;11.13;;
14516;SDS011;7344;50.864;4.362;2023-07-20T05:15:07;15.70;;;10.83;;
14516;SDS011;7344;50.864;4.362;2023-07-20T05:17:33;21.07;;;11.40;;
14516;SDS011;7344;50.864;4.362;2023-07-20T05:19:58;18.73;;;11.07;;
14516;SDS011;7344;50.864;4.362;2023-07-20T05:22:24;14.33;;;10.70;;
14516;SDS011;7344;50.864;4.362;2023-07-20T05:24:49;15.07;;;10.70;;
14516;SDS011;7344;50.864;4.362;2023-07-20T05:27:15;15.80;;;10.60;;
14516;SDS011;7344;50.864;4.362;2023-07-20T05:29:44;14.13;;;10.37;;
14516;SDS011;7344;50.864;4.362;2023-07-20T05:32:11;16.13;;;10.77;;
14516;SDS011;7344;50.864;4.362;2023-07-20T05:34:37;14.05;;;10.40;;
14516;SDS011;7344;50.864;4.362;2023-07-20T05:37:02;12.85;;;10.18;;
14516;SDS011;7344;50.864;4.362;2023-07-20T05:39:28;15.70;;;10.68;;
14516;SDS011;7344;50.864;4.362;2023-07-20T05:41:54;12.95;;;9.88;;
14516;SDS011;7344;50.864;4.362;2023-07-20T05:44:19;14.18;;;10.48;;
14516;SDS011;7344;50.864;4.362;2023-07-20T05:46:45;15.70;;;10.88;;
14516;SDS011;7344;50.864;4.362;2023-07-20T05:49:10;15.52;;;10.80;;
14516;SDS011;7344;50.864;4.362;2023-07-20T05:51:36;17.50;;;11.02;;
14516;SDS011;7344;50.864;4.362;2023-07-20T05:54:02;16.33;;;10.93;;
14516;SDS011;7344;50.864;4.362;2023-07-20T05:56:27;13.90;;;9.98;;
14516;SDS011;7344;50.864;4.362;2023-07-20T05:58:53;13.35;;;10.18;;
14516;SDS011;7344;50.864;4.362;2023-07-20T06:01:18;13.87;;;9.63;;
14516;SDS011;7344;50.864;4.362;2023-07-20T06:03:44;15.13;;;9.93;;
14516;SDS011;7344;50.864;4.362;2023-07-20T06:06:10;16.67;;;12.03;;
14516;SDS011;7344;50.864;4.362;2023-07-20T06:08:37;17.30;;;10.83;;
14516;SDS011;7344;50.864;4.362;2023-07-20T06:11:03;12.65;;;9.55;;
14516;SDS011;7344;50.864;4.362;2023-07-20T06:13:28;12.83;;;9.53;;
14516;SDS011;7344;50.864;4.362;2023-07-20T06:15:54;13.93;;;9.23;;
14516;SDS011;7344;50.864;4.362;2023-07-20T06:18:21;12.03;;;8.37;;
14516;SDS011;7344;50.864;4.362;2023-07-20T06:20:50;11.65;;;8.07;;
14516;SDS011;7344;50.864;4.362;2023-07-20T06:23:16;8.90;;;7.75;;
14516;SDS011;7344;50.864;4.362;2023-07-20T06:25:43;9.07;;;6.85;;
14516;SDS011;7344;50.864;4.362;2023-07-20T06:28:09;7.55;;;6.85;;
14516;SDS011;7344;50.864;4.362;2023-07-20T06:30:34;10.93;;;7.53;;
14516;SDS011;7344;50.864;4.362;2023-07-20T06:33:00;5.40;;;4.90;;
14516;SDS011;7344;50.864;4.362;2023-07-20T06:35:26;6.45;;;5.75;;
14516;SDS011;7344;50.864;4.362;2023-07-20T06:37:52;9.77;;;5.88;;
14516;SDS011;7344;50.864;4.362;2023-07-20T06:40:17;7.20;;;6.00;;
14516;SDS011;7344;50.864;4.362;2023-07-20T06:42:43;8.98;;;5.22;;
14516;SDS011;7344;50.864;4.362;2023-07-20T06:45:09;7.38;;;4.93;;
14516;SDS011;7344;50.864;4.362;2023-07-20T06:47:37;5.38;;;4.78;;
14516;SDS011;7344;50.864;4.362;2023-07-20T06:50:05;4.53;;;4.20;;
14516;SDS011;7344;50.864;4.362;2023-07-20T06:52:31;5.68;;;4.60;;
14516;SDS011;7344;50.864;4.362;2023-07-20T06:54:57;6.20;;;4.60;;
14516;SDS011;7344;50.864;4.362;2023-07-20T06:57:23;8.35;;;5.18;;
14516;SDS011;7344;50.864;4.362;2023-07-20T06:59:49;6.45;;;4.68;;
14516;SDS011;7344;50.864;4.362;2023-07-20T07:02:14;4.75;;;3.80;;
14516;SDS011;7344;50.864;4.362;2023-07-20T07:04:40;3.80;;;3.50;;
14516;SDS011;7344;50.864;4.362;2023-07-20T07:07:07;4.15;;;3.17;;
14516;SDS011;7344;50.864;4.362;2023-07-20T07:09:33;3.60;;;3.10;;
14516;SDS011;7344;50.864;4.362;2023-07-20T07:11:59;3.15;;;2.30;;
14516;SDS011;7344;50.864;4.362;2023-07-20T07:14:25;1.10;;;1.10;;
14516;SDS011;7344;50.864;4.362;2023-07-20T07:16:50;2.47;;;1.90;;
14516;SDS011;7344;50.864;4.362;2023-07-20T07:19:16;2.15;;;1.95;;
14516;SDS011;7344;50.864;4.362;2023-07-20T07:21:42;1.70;;;1.60;;
14516;SDS011;7344;50.864;4.362;2023-07-20T07:24:07;2.22;;;1.90;;
14516;SDS011;7344;50.864;4.362;2023-07-20T07:26:34;1.92;;;1.23;;
14516;SDS011;7344;50.864;4.362;2023-07-20T07:29:01;1.20;;;1.10;;
14516;SDS011;7344;50.864;4.362;2023-07-20T07:31:26;1.63;;;1.52;;
14516;SDS011;7344;50.864;4.362;2023-07-20T07:33:53;1.88;;;1.60;;
14516;SDS011;7344;50.864;4.362;2023-07-20T07:36:19;3.00;;;2.70;;
14516;SDS011;7344;50.864;4.362;2023-07-20T07:38:44;2.35;;;1.45;;
14516;SDS011;7344;50.864;4.362;2023-07-20T07:41:10;3.10;;;1.30;;
14516;SDS011;7344;50.864;4.362;2023-07-20T07:43:36;1.05;;;1.00;;
14516;SDS011;7344;50.864;4.362;2023-07-20T07:46:01;1.38;;;1.27;;
14516;SDS011;7344;50.864;4.362;2023-07-20T07:48:27;2.72;;;1.58;;
14516;SDS011;7344;50.864;4.362;2023-07-20T07:50:53;1.90;;;1.20;;
14516;SDS011;7344;50.864;4.362;2023-07-20T07:53:19;1.88;;;1.33;;
14516;SDS011;7344;50.864;4.362;2023-07-20T07:55:47;1.80;;;1.30;;
14516;SDS011;7344;50.864;4.362;2023-07-20T07:58:13;2.83;;;1.20;;
14516;SDS011;7344;50.864;4.362;2023-07-20T08:00:38;1.23;;;1.20;;
14516;SDS011;7344;50.864;4.362;2023-07-20T08:03:05;1.45;;;1.10;;
14516;SDS011;7344;50.864;4.362;2023-07-20T08:05:31;4.05;;;1.00;;
14516;SDS011;7344;50.864;4.362;2023-07-20T08:07:57;1.38;;;1.10;;
14516;SDS011;7344;50.864;4.362;2023-07-20T08:10:22;0.90;;;0.90;;
14516;SDS011;7344;50.864;4.362;2023-07-20T08:12:48;1.00;;;0.82;;
14516;SDS011;7344;50.864;4.362;2023-07-20T08:15:13;0.95;;;0.90;;
14516;SDS011;7344;50.864;4.362;2023-07-20T08:17:40;1.40;;;1.00;;
14516;SDS011;7344;50.864;4.362;2023-07-20T08:20:07;0.68;;;0.68;;
14516;SDS011;7344;50.864;4.362;2023-07-20T08:22:34;1.67;;;0.88;;
14516;SDS011;7344;50.864;4.362;2023-07-20T08:25:00;1.10;;;1.00;;
14516;SDS011;7344;50.864;4.362;2023-07-20T08:27:26;2.50;;;1.10;;
14516;SDS011;7344;50.864;4.362;2023-07-20T08:29:51;3.42;;;1.23;;
14516;SDS011;7344;50.864;4.362;2023-07-20T08:32:17;1.20;;;1.10;;
14516;SDS011;7344;50.864;4.362;2023-07-20T08:34:42;1.10;;;1.00;;
14516;SDS011;7344;50.864;4.362;2023-07-20T08:37:08;1.48;;;1.33;;
14516;SDS011;7344;50.864;4.362;2023-07-20T08:39:35;1.88;;;1.20;;
14516;SDS011;7344;50.864;4.362;2023-07-20T08:42:01;1.33;;;1.00;;
14516;SDS011;7344;50.864;4.362;2023-07-20T08:44:29;1.25;;;1.10;;
14516;SDS011;7344;50.864;4.362;2023-07-20T08:46:56;1.83;;;1.30;;
14516;SDS011;7344;50.864;4.362;2023-07-20T08:49:23;1.33;;;1.20;;
14516;SDS011;7344;50.864;4.362;2023-07-20T08:51:48;3.08;;;0.90;;
14516;SDS011;7344;50.864;4.362;2023-07-20T08:54:16;1.02;;;1.00;;
14516;SDS011;7344;50.864;4.362;2023-07-20T08:56:42;0.63;;;0.63;;
14516;SDS011;7344;50.864;4.362;2023-07-20T08:59:10;1.17;;;1.08;;
14516;SDS011;7344;50.864;4.362;2023-07-20T09:01:37;0.90;;;0.80;;
14516;SDS011;7344;50.864;4.362;2023-07-20T09:04:05;4.55;;;1.10;;
14516;SDS011;7344;50.864;4.362;2023-07-20T09:06:31;1.52;;;1.40;;
14516;SDS011;7344;50.864;4.362;2023-07-20T09:08:59;1.10;;;1.00;;
14516;SDS011;7344;50.864;4.362;2023-07-20T09:11:25;1.45;;;1.20;;
14516;SDS011;7344;50.864;4.362;2023-07-20T09:14:03;1.13;;;1.08;;
14516;SDS011;7344;50.864;4.362;2023-07-20T09:16:33;1.20;;;1.00;;
14516;SDS011;7344;50.864;4.362;2023-07-20T09:19:16;1.50;;;1.30;;
14516;SDS011;7344;50.864;4.362;2023-07-20T09:21:45;1.38;;;0.80;;
14516;SDS011;7344;50.864;4.362;2023-07-20T09:24:15;1.08;;;1.08;;
14516;SDS011;7344;50.864;4.362;2023-07-20T09:26:43;2.25;;;1.23;;
14516;SDS011;7344;50.864;4.362;2023-07-20T09:29:09;2.75;;;1.20;;
14516;SDS011;7344;50.864;4.362;2023-07-20T09:31:36;1.30;;;1.20;;
14516;SDS011;7344;50.864;4.362;2023-07-20T09:34:01;1.35;;;1.25;;
14516;SDS011;7344;50.864;4.362;2023-07-20T09:36:28;1.45;;;1.20;;
14516;SDS011;7344;50.864;4.362;2023-07-20T09:38:54;1.50;;;1.40;;
14516;SDS011;7344;50.864;4.362;2023-07-20T09:41:20;1.60;;;1.50;;
14516;SDS011;7344;50.864;4.362;2023-07-20T09:43:46;1.40;;;1.30;;
14516;SDS011;7344;50.864;4.362;2023-07-20T09:46:12;1.25;;;1.15;;
14516;SDS011;7344;50.864;4.362;2023-07-20T09:48:38;0.90;;;0.90;;
14516;SDS011;7344;50.864;4.362;2023-07-20T09:51:04;1.70;;;1.58;;
14516;SDS011;7344;50.864;4.362;2023-07-20T09:53:32;2.35;;;1.13;;
14516;SDS011;7344;50.864;4.362;2023-07-20T09:55:58;1.40;;;1.20;;
14516;SDS011;7344;50.864;4.362;2023-07-20T09:58:25;2.75;;;0.98;;
14516;SDS011;7344;50.864;4.362;2023-07-20T10:00:52;1.33;;;1.17;;
14516;SDS011;7344;50.864;4.362;2023-07-20T10:03:22;1.73;;;1.40;;
14516;SDS011;7344;50.864;4.362;2023-07-20T10:05:57;3.75;;;1.38;;
14516;SDS011;7344;50.864;4.362;2023-07-20T10:08:28;1.10;;;1.10;;
14516;SDS011;7344;50.864;4.362;2023-07-20T10:10:57;1.95;;;1.55;;
14516;SDS011;7344;50.864;4.362;2023-07-20T10:13:26;1.92;;;1.73;;
14516;SDS011;7344;50.864;4.362;2023-07-20T10:15:54;2.10;;;2.00;;
14516;SDS011;7344;50.864;4.362;2023-07-20T10:18:38;2.15;;;1.40;;
14516;SDS011;7344;50.864;4.362;2023-07-20T10:21:23;2.20;;;1.65;;
14516;SDS011;7344;50.864;4.362;2023-07-20T10:23:50;1.17;;;1.08;;
14516;SDS011;7344;50.864;4.362;2023-07-20T10:26:16;1.70;;;1.08;;
14516;SDS011;7344;50.864;4.362;2023-07-20T10:28:42;3.25;;;1.20;;
14516;SDS011;7344;50.864;4.362;2023-07-20T10:31:08;2.33;;;1.20;;
14516;SDS011;7344;50.864;4.362;2023-07-20T10:33:36;1.85;;;1.40;;
14516;SDS011;7344;50.864;4.362;2023-07-20T10:36:03;1.60;;;1.50;;
14516;SDS011;7344;50.864;4.362;2023-07-20T10:38:43;1.42;;;1.33;;
14516;SDS011;7344;50.864;4.362;2023-07-20T10:41:23;1.30;;;1.20;;
14516;SDS011;7344;50.864;4.362;2023-07-20T10:44:03;2.35;;;1.40;;
14516;SDS011;7344;50.864;4.362;2023-07-20T10:49:08;1.63;;;1.52;;
14516;SDS011;7344;50.864;4.362;2023-07-20T10:51:44;2.40;;;1.92;;
14516;SDS011;7344;50.864;4.362;2023-07-20T10:56:41;2.95;;;1.85;;
14516;SDS011;7344;50.864;4.362;2023-07-20T11:02:07;1.90;;;1.70;;
14516;SDS011;7344;50.864;4.362;2023-07-20T11:04:39;1.48;;;1.35;;
14516;SDS011;7344;50.864;4.362;2023-07-20T11:07:06;2.15;;;1.95;;
14516;SDS011;7344;50.864;4.362;2023-07-20T11:09:35;2.55;;;1.25;;
14516;SDS011;7344;50.864;4.362;2023-07-20T11:12:14;1.67;;;1.30;;
14516;SDS011;7344;50.864;4.362;2023-07-20T11:14:43;1.60;;;1.38;;
14516;SDS011;7344;50.864;4.362;2023-07-20T11:17:18;2.08;;;1.60;;
14516;SDS011;7344;50.864;4.362;2023-07-20T11:19:47;5.25;;;1.70;;
14516;SDS011;7344;50.864;4.362;2023-07-20T11:22:16;1.58;;;1.50;;
14516;SDS011;7344;50.864;4.362;2023-07-20T11:24:42;2.70;;;2.50;;
14516;SDS011;7344;50.864;4.362;2023-07-20T11:27:08;2.38;;;2.17;;
14516;SDS011;7344;50.864;4.362;2023-07-20T11:29:34;2.00;;;1.85;;
14516;SDS011;7344;50.864;4.362;2023-07-20T11:32:02;2.72;;;1.80;;
14516;SDS011;7344;50.864;4.362;2023-07-20T11:34:30;4.50;;;1.45;;
14516;SDS011;7344;50.864;4.362;2023-07-20T11:36:57;3.70;;;1.50;;
14516;SDS011;7344;50.864;4.362;2023-07-20T11:39:23;2.88;;;1.40;;
14516;SDS011;7344;50.864;4.362;2023-07-20T11:41:54;2.10;;;1.73;;
14516;SDS011;7344;50.864;4.362;2023-07-20T11:44:21;1.30;;;1.20;;
14516;SDS011;7344;50.864;4.362;2023-07-20T11:49:29;2.00;;;1.45;;
14516;SDS011;7344;50.864;4.362;2023-07-20T11:51:59;1.67;;;1.58;;
14516;SDS011;7344;50.864;4.362;2023-07-20T11:54:25;3.00;;;1.85;;
14516;SDS011;7344;50.864;4.362;2023-07-20T11:56:54;1.80;;;1.70;;
14516;SDS011;7344;50.864;4.362;2023-07-20T11:59:22;1.80;;;1.70;;
14516;SDS011;7344;50.864;4.362;2023-07-20T12:01:48;1.63;;;1.52;;
14516;SDS011;7344;50.864;4.362;2023-07-20T12:04:13;2.03;;;1.80;;
14516;SDS011;7344;50.864;4.362;2023-07-20T12:06:39;1.98;;;1.88;;
14516;SDS011;7344;50.864;4.362;2023-07-20T12:09:05;1.85;;;1.80;;
14516;SDS011;7344;50.864;4.362;2023-07-20T12:11:34;2.58;;;2.40;;
14516;SDS011;7344;50.864;4.362;2023-07-20T12:14:01;3.05;;;2.65;;
14516;SDS011;7344;50.864;4.362;2023-07-20T12:16:28;2.00;;;1.88;;
14516;SDS011;7344;50.864;4.362;2023-07-20T12:19:07;2.45;;;2.28;;
14516;SDS011;7344;50.864;4.362;2023-07-20T12:21:35;3.05;;;2.17;;
14516;SDS011;7344;50.864;4.362;2023-07-20T12:24:03;2.10;;;1.98;;
14516;SDS011;7344;50.864;4.362;2023-07-20T12:26:30;5.18;;;2.22;;
14516;SDS011;7344;50.864;4.362;2023-07-20T12:28:56;2.60;;;1.88;;
14516;SDS011;7344;50.864;4.362;2023-07-20T12:31:23;1.88;;;1.80;;
14516;SDS011;7344;50.864;4.362;2023-07-20T12:33:50;2.67;;;1.92;;
14516;SDS011;7344;50.864;4.362;2023-07-20T12:36:16;3.13;;;2.20;;
14516;SDS011;7344;50.864;4.362;2023-07-20T12:38:42;1.83;;;1.73;;
14516;SDS011;7344;50.864;4.362;2023-07-20T12:41:09;1.92;;;1.83;;
14516;SDS011;7344;50.864;4.362;2023-07-20T12:43:39;2.78;;;2.40;;
14516;SDS011;7344;50.864;4.362;2023-07-20T12:46:06;2.85;;;2.22;;
14516;SDS011;7344;50.864;4.362;2023-07-20T12:48:32;3.17;;;2.50;;
14516;SDS011;7344;50.864;4.362;2023-07-20T12:50:58;2.70;;;2.50;;
14516;SDS011;7344;50.864;4.362;2023-07-20T12:53:23;2.40;;;2.30;;
14516;SDS011;7344;50.864;4.362;2023-07-20T12:55:49;3.05;;;2.05;;
14516;SDS011;7344;50.864;4.362;2023-07-20T12:58:15;2.45;;;2.35;;
14516;SDS011;7344;50.864;4.362;2023-07-20T13:00:41;2.28;;;2.17;;
14516;SDS011;7344;50.864;4.362;2023-07-20T13:03:06;2.13;;;1.70;;
14516;SDS011;7344;50.864;4.362;2023-07-20T13:05:33;2.42;;;2.22;;
14516;SDS011;7344;50.864;4.362;2023-07-20T13:08:00;2.03;;;1.88;;
14516;SDS011;7344;50.864;4.362;2023-07-20T13:10:25;3.00;;;2.13;;
14516;SDS011;7344;50.864;4.362;2023-07-20T13:12:51;2.80;;;1.95;;
14516;SDS011;7344;50.864;4.362;2023-07-20T13:15:17;2.40;;;2.20;;
14516;SDS011;7344;50.864;4.362;2023-07-20T13:17:43;2.55;;;2.35;;
14516;SDS011;7344;50.864;4.362;2023-07-20T13:20:10;3.70;;;2.30;;
14516;SDS011;7344;50.864;4.362;2023-07-20T13:22:36;2.97;;;2.78;;
14516;SDS011;7344;50.864;4.362;2023-07-20T13:25:05;3.28;;;2.53;;
14516;SDS011;7344;50.864;4.362;2023-07-20T13:27:32;2.55;;;2.35;;
14516;SDS011;7344;50.864;4.362;2023-07-20T13:29:58;2.45;;;2.35;;
14516;SDS011;7344;50.864;4.362;2023-07-20T13:32:25;2.00;;;1.90;;
14516;SDS011;7344;50.864;4.362;2023-07-20T13:34:52;2.70;;;2.50;;
14516;SDS011;7344;50.864;4.362;2023-07-20T13:37:17;3.53;;;3.13;;
14516;SDS011;7344;50.864;4.362;2023-07-20T13:39:43;3.78;;;2.50;;
14516;SDS011;7344;50.864;4.362;2023-07-20T13:42:09;4.07;;;2.65;;
14516;SDS011;7344;50.864;4.362;2023-07-20T13:44:37;2.28;;;2.10;;
14516;SDS011;7344;50.864;4.362;2023-07-20T13:47:03;4.45;;;2.38;;
14516;SDS011;7344;50.864;4.362;2023-07-20T13:49:30;2.40;;;2.20;;
14516;SDS011;7344;50.864;4.362;2023-07-20T13:51:56;2.53;;;2.30;;
14516;SDS011;7344;50.864;4.362;2023-07-20T13:54:22;2.53;;;2.25;;
14516;SDS011;7344;50.864;4.362;2023-07-20T13:56:48;2.67;;;2.50;;
14516;SDS011;7344;50.864;4.362;2023-07-20T13:59:14;2.60;;;2.35;;
14516;SDS011;7344;50.864;4.362;2023-07-20T14:01:39;2.97;;;2.30;;
14516;SDS011;7344;50.864;4.362;2023-07-20T14:04:05;2.83;;;2.47;;
14516;SDS011;7344;50.864;4.362;2023-07-20T14:06:31;2.90;;;2.35;;
14516;SDS011;7344;50.864;4.362;2023-07-20T14:08:58;2.50;;;2.00;;
14516;SDS011;7344;50.864;4.362;2023-07-20T14:11:24;1.58;;;1.48;;
14516;SDS011;7344;50.864;4.362;2023-07-20T14:13:50;2.22;;;1.90;;
14516;SDS011;7344;50.864;4.362;2023-07-20T14:16:18;1.90;;;1.80;;
14516;SDS011;7344;50.864;4.362;2023-07-20T14:18:44;2.40;;;2.22;;
14516;SDS011;7344;50.864;4.362;2023-07-20T14:21:12;2.20;;;1.98;;
14516;SDS011;7344;50.864;4.362;2023-07-20T14:23:38;2.72;;;2.00;;
14516;SDS011;7344;50.864;4.362;2023-07-20T14:26:03;3.13;;;1.90;;
14516;SDS011;7344;50.864;4.362;2023-07-20T14:28:35;2.28;;;1.98;;
14516;SDS011;7344;50.864;4.362;2023-07-20T14:31:01;1.92;;;1.83;;
14516;SDS011;7344;50.864;4.362;2023-07-20T14:33:26;1.83;;;1.55;;
14516;SDS011;7344;50.864;4.362;2023-07-20T14:35:52;1.98;;;1.70;;
14516;SDS011;7344;50.864;4.362;2023-07-20T14:38:17;2.53;;;1.92;;
14516;SDS011;7344;50.864;4.362;2023-07-20T14:40:43;5.28;;;2.28;;
14516;SDS011;7344;50.864;4.362;2023-07-20T14:43:09;2.85;;;2.05;;
14516;SDS011;7344;50.864;4.362;2023-07-20T14:45:35;4.05;;;2.15;;
14516;SDS011;7344;50.864;4.362;2023-07-20T14:48:03;2.30;;;2.20;;
14516;SDS011;7344;50.864;4.362;2023-07-20T14:50:29;2.00;;;1.85;;
14516;SDS011;7344;50.864;4.362;2023-07-20T14:52:54;2.15;;;1.88;;
14516;SDS011;7344;50.864;4.362;2023-07-20T14:55:20;3.53;;;1.90;;
14516;SDS011;7344;50.864;4.362;2023-07-20T14:57:47;4.47;;;2.65;;
14516;SDS011;7344;50.864;4.362;2023-07-20T15:00:13;2.50;;;2.30;;
14516;SDS011;7344;50.864;4.362;2023-07-20T15:02:40;2.30;;;2.20;;
14516;SDS011;7344;50.864;4.362;2023-07-20T15:05:06;3.00;;;1.95;;
14516;SDS011;7344;50.864;4.362;2023-07-20T15:07:32;3.03;;;1.88;;
14516;SDS011;7344;50.864;4.362;2023-07-20T15:09:59;1.95;;;1.77;;
14516;SDS011;7344;50.864;4.362;2023-07-20T15:12:25;2.30;;;1.70;;
14516;SDS011;7344;50.864;4.362;2023-07-20T15:15:02;2.05;;;1.88;;
14516;SDS011;7344;50.864;4.362;2023-07-20T15:17:30;2.08;;;1.60;;